sensor_id;sensor_type;location;lat;lon;timestamp;temperature;humidity
4518;DHT22;2271;49.464;11.070;2023-09-18T00:01:51;21.30;99.90
4518;DHT22;2271;49.464;11.070;2023-09-18T00:04:16;21.30;99.90
4518;DHT22;2271;49.464;11.070;2023-09-18T00:06:42;21.30;99.90
4518;DHT22;2271;49.464;11.070;2023-09-18T00:09:08;21.30;99.90
4518;DHT22;2271;49.464;11.070;2023-09-18T00:11:39;21.30;99.90
4518;DHT22;2271;49.464;11.070;2023-09-18T00:14:05;21.30;99.90
4518;DHT22;2271;49.464;11.070;2023-09-18T00:16:31;21.30;99.90
4518;DHT22;2271;49.464;11.070;2023-09-18T00:18:58;21.30;99.90
4518;DHT22;2271;49.464;11.070;2023-09-18T00:21:23;21.30;99.90
4518;DHT22;2271;49.464;11.070;2023-09-18T00:23:51;21.30;99.90
4518;DHT22;2271;49.464;11.070;2023-09-18T00:26:17;21.20;99.90
4518;DHT22;2271;49.464;11.070;2023-09-18T00:28:42;21.20;99.90
4518;DHT22;2271;49.464;11.070;2023-09-18T00:31:08;21.10;99.90
4518;DHT22;2271;49.464;11.070;2023-09-18T00:33:34;21.10;99.90
4518;DHT22;2271;49.464;11.070;2023-09-18T00:35:59;21.10;99.90
4518;DHT22;2271;49.464;11.070;2023-09-18T00:38:25;21.10;99.90
4518;DHT22;2271;49.464;11.070;2023-09-18T00:40:50;21.10;99.90
4518;DHT22;2271;49.464;11.070;2023-09-18T00:43:16;21.00;99.90
4518;DHT22;2271;49.464;11.070;2023-09-18T00:45:45;21.00;99.90
4518;DHT22;2271;49.464;11.070;2023-09-18T00:48:12;21.00;99.90
4518;DHT22;2271;49.464;11.070;2023-09-18T00:50:38;21.00;99.90
4518;DHT22;2271;49.464;11.070;2023-09-18T00:53:04;21.00;99.90
4518;DHT22;2271;49.464;11.070;2023-09-18T00:55:32;21.00;99.90
4518;DHT22;2271;49.464;11.070;2023-09-18T00:57:58;21.00;99.90
4518;DHT22;2271;49.464;11.070;2023-09-18T01:00:24;21.00;99.90
4518;DHT22;2271;49.464;11.070;2023-09-18T01:02:50;21.00;99.90
4518;DHT22;2271;49.464;11.070;2023-09-18T01:05:16;20.90;99.90
4518;DHT22;2271;49.464;11.070;2023-09-18T01:07:42;20.90;99.90
4518;DHT22;2271;49.464;11.070;2023-09-18T01:10:09;20.90;99.90
4518;DHT22;2271;49.464;11.070;2023-09-18T01:15:17;20.90;99.90
4518;DHT22;2271;49.464;11.070;2023-09-18T01:17:44;20.90;99.90
4518;DHT22;2271;49.464;11.070;2023-09-18T01:20:12;20.90;99.90
4518;DHT22;2271;49.464;11.070;2023-09-18T01:22:37;20.90;99.90
4518;DHT22;2271;49.464;11.070;2023-09-18T01:25:03;20.90;99.90
4518;DHT22;2271;49.464;11.070;2023-09-18T01:27:29;20.90;99.90
4518;DHT22;2271;49.464;11.070;2023-09-18T01:29:55;20.90;99.90
4518;DHT22;2271;49.464;11.070;2023-09-18T01:32:25;20.80;99.90
4518;DHT22;2271;49.464;11.070;2023-09-18T01:34:54;20.80;99.90
4518;DHT22;2271;49.464;11.070;2023-09-18T01:37:24;20.80;99.90
4518;DHT22;2271;49.464;11.070;2023-09-18T01:39:51;20.80;99.90
4518;DHT22;2271;49.464;11.070;2023-09-18T01:42:18;20.80;99.90
4518;DHT22;2271;49.464;11.070;2023-09-18T01:44:44;20.80;99.90
4518;DHT22;2271;49.464;11.070;2023-09-18T01:47:18;20.70;99.90
4518;DHT22;2271;49.464;11.070;2023-09-18T01:49:44;20.70;99.90
4518;DHT22;2271;49.464;11.070;2023-09-18T01:52:12;20.70;99.90
4518;DHT22;2271;49.464;11.070;2023-09-18T01:54:38;20.70;99.90
4518;DHT22;2271;49.464;11.070;2023-09-18T01:57:04;20.70;99.90
4518;DHT22;2271;49.464;11.070;2023-09-18T01:59:30;20.60;99.90
4518;DHT22;2271;49.464;11.070;2023-09-18T02:01:56;20.60;99.90
4518;DHT22;2271;49.464;11.070;2023-09-18T02:04:22;20.60;99.90
4518;DHT22;2271;49.464;11.070;2023-09-18T02:06:49;20.60;99.90
4518;DHT22;2271;49.464;11.070;2023-09-18T02:09:16;20.70;99.90
4518;DHT22;2271;49.464;11.070;2023-09-18T02:11:46;20.70;99.90
4518;DHT22;2271;49.464;11.070;2023-09-18T02:14:12;20.60;99.90
4518;DHT22;2271;49.464;11.070;2023-09-18T02:16:42;20.60;99.90
4518;DHT22;2271;49.464;11.070;2023-09-18T02:19:09;20.60;99.90
4518;DHT22;2271;49.464;11.070;2023-09-18T02:21:35;20.60;99.90
4518;DHT22;2271;49.464;11.070;2023-09-18T02:24:01;20.60;99.90
4518;DHT22;2271;49.464;11.070;2023-09-18T02:26:27;20.50;99.90
4518;DHT22;2271;49.464;11.070;2023-09-18T02:28:53;20.50;99.90
4518;DHT22;2271;49.464;11.070;2023-09-18T02:31:23;20.50;99.90
4518;DHT22;2271;49.464;11.070;2023-09-18T02:33:48;20.50;99.90
4518;DHT22;2271;49.464;11.070;2023-09-18T02:36:14;20.60;99.90
4518;DHT22;2271;49.464;11.070;2023-09-18T02:38:40;20.50;99.90
4518;DHT22;2271;49.464;11.070;2023-09-18T02:41:06;20.50;99.90
4518;DHT22;2271;49.464;11.070;2023-09-18T02:43:31;20.50;99.90
4518;DHT22;2271;49.464;11.070;2023-09-18T02:45:57;20.50;99.90
4518;DHT22;2271;49.464;11.070;2023-09-18T02:48:23;20.40;99.90
4518;DHT22;2271;49.464;11.070;2023-09-18T02:50:48;20.40;99.90
4518;DHT22;2271;49.464;11.070;2023-09-18T02:53:32;20.40;99.90
4518;DHT22;2271;49.464;11.070;2023-09-18T02:55:59;20.40;99.90
4518;DHT22;2271;49.464;11.070;2023-09-18T02:58:25;20.40;99.90
4518;DHT22;2271;49.464;11.070;2023-09-18T03:00:52;20.30;99.90
4518;DHT22;2271;49.464;11.070;2023-09-18T03:03:19;20.30;99.90
4518;DHT22;2271;49.464;11.070;2023-09-18T03:05:44;20.20;99.90
4518;DHT22;2271;49.464;11.070;2023-09-18T03:08:11;20.30;99.90
4518;DHT22;2271;49.464;11.070;2023-09-18T03:10:41;20.20;99.90
4518;DHT22;2271;49.464;11.070;2023-09-18T03:13:12;20.20;99.90
4518;DHT22;2271;49.464;11.070;2023-09-18T03:15:38;20.10;99.90
4518;DHT22;2271;49.464;11.070;2023-09-18T03:18:06;20.10;99.90
4518;DHT22;2271;49.464;11.070;2023-09-18T03:20:35;20.20;99.90
4518;DHT22;2271;49.464;11.070;2023-09-18T03:23:01;20.20;99.90
4518;DHT22;2271;49.464;11.070;2023-09-18T03:25:27;20.20;99.90
4518;DHT22;2271;49.464;11.070;2023-09-18T03:27:55;20.20;99.90
4518;DHT22;2271;49.464;11.070;2023-09-18T03:30:21;20.20;99.90
4518;DHT22;2271;49.464;11.070;2023-09-18T03:32:49;20.20;99.90
4518;DHT22;2271;49.464;11.070;2023-09-18T03:35:15;20.30;99.90
4518;DHT22;2271;49.464;11.070;2023-09-18T03:37:50;20.30;99.90
4518;DHT22;2271;49.464;11.070;2023-09-18T03:40:17;20.30;99.90
4518;DHT22;2271;49.464;11.070;2023-09-18T03:42:43;20.30;99.90
4518;DHT22;2271;49.464;11.070;2023-09-18T03:45:09;20.40;99.90
4518;DHT22;2271;49.464;11.070;2023-09-18T03:47:36;20.30;99.90
4518;DHT22;2271;49.464;11.070;2023-09-18T03:50:03;20.30;99.90
4518;DHT22;2271;49.464;11.070;2023-09-18T03:52:29;20.20;99.90
4518;DHT22;2271;49.464;11.070;2023-09-18T03:54:54;20.30;99.90
4518;DHT22;2271;49.464;11.070;2023-09-18T03:57:20;20.30;99.90
4518;DHT22;2271;49.464;11.070;2023-09-18T03:59:46;20.20;99.90
4518;DHT22;2271;49.464;11.070;2023-09-18T04:02:11;20.20;99.90
4518;DHT22;2271;49.464;11.070;2023-09-18T04:04:37;20.20;99.90
4518;DHT22;2271;49.464;11.070;2023-09-18T04:07:06;20.30;99.90
4518;DHT22;2271;49.464;11.070;2023-09-18T04:09:32;20.20;99.90
4518;DHT22;2271;49.464;11.070;2023-09-18T04:11:57;20.20;99.90
4518;DHT22;2271;49.464;11.070;2023-09-18T04:14:23;20.20;99.90
4518;DHT22;2271;49.464;11.070;2023-09-18T04:16:50;20.20;99.90
4518;DHT22;2271;49.464;11.070;2023-09-18T04:19:15;20.20;99.90
4518;DHT22;2271;49.464;11.070;2023-09-18T04:21:41;20.20;99.90
4518;DHT22;2271;49.464;11.070;2023-09-18T04:24:07;20.30;99.90
4518;DHT22;2271;49.464;11.070;2023-09-18T04:26:32;20.30;99.90
4518;DHT22;2271;49.464;11.070;2023-09-18T04:28:59;20.30;99.90
4518;DHT22;2271;49.464;11.070;2023-09-18T04:31:25;20.30;99.90
4518;DHT22;2271;49.464;11.070;2023-09-18T04:33:52;20.50;99.90
4518;DHT22;2271;49.464;11.070;2023-09-18T04:36:18;20.50;99.90
4518;DHT22;2271;49.464;11.070;2023-09-18T04:38:44;20.60;99.90
4518;DHT22;2271;49.464;11.070;2023-09-18T04:41:09;20.50;99.90
4518;DHT22;2271;49.464;11.070;2023-09-18T04:43:39;20.50;99.90
4518;DHT22;2271;49.464;11.070;2023-09-18T04:46:05;20.50;99.90
4518;DHT22;2271;49.464;11.070;2023-09-18T04:48:31;20.30;99.90
4518;DHT22;2271;49.464;11.070;2023-09-18T04:50:58;20.30;99.90
4518;DHT22;2271;49.464;11.070;2023-09-18T04:53:24;20.30;99.90
4518;DHT22;2271;49.464;11.070;2023-09-18T04:55:49;20.30;99.90
4518;DHT22;2271;49.464;11.070;2023-09-18T04:58:16;20.30;99.90
4518;DHT22;2271;49.464;11.070;2023-09-18T05:00:42;20.30;99.90
4518;DHT22;2271;49.464;11.070;2023-09-18T05:03:08;20.30;99.90
4518;DHT22;2271;49.464;11.070;2023-09-18T05:05:35;20.20;99.90
4518;DHT22;2271;49.464;11.070;2023-09-18T05:08:06;20.30;99.90
4518;DHT22;2271;49.464;11.070;2023-09-18T05:10:36;20.20;99.90
4518;DHT22;2271;49.464;11.070;2023-09-18T05:13:02;20.20;99.90
4518;DHT22;2271;49.464;11.070;2023-09-18T05:15:28;20.30;99.90
4518;DHT22;2271;49.464;11.070;2023-09-18T05:17:58;20.40;99.90
4518;DHT22;2271;49.464;11.070;2023-09-18T05:20:25;20.50;99.90
4518;DHT22;2271;49.464;11.070;2023-09-18T05:22:52;20.50;99.90
4518;DHT22;2271;49.464;11.070;2023-09-18T05:25:19;20.60;99.90
4518;DHT22;2271;49.464;11.070;2023-09-18T05:27:47;20.60;99.90
4518;DHT22;2271;49.464;11.070;2023-09-18T05:30:19;20.60;99.90
4518;DHT22;2271;49.464;11.070;2023-09-18T05:32:47;20.70;99.90
4518;DHT22;2271;49.464;11.070;2023-09-18T05:35:14;20.70;99.90
4518;DHT22;2271;49.464;11.070;2023-09-18T05:37:41;20.70;99.90
4518;DHT22;2271;49.464;11.070;2023-09-18T05:40:08;20.80;99.90
4518;DHT22;2271;49.464;11.070;2023-09-18T05:42:42;20.80;99.90
4518;DHT22;2271;49.464;11.070;2023-09-18T05:45:14;20.80;99.90
4518;DHT22;2271;49.464;11.070;2023-09-18T05:47:41;20.80;99.90
4518;DHT22;2271;49.464;11.070;2023-09-18T05:50:09;20.80;99.90
4518;DHT22;2271;49.464;11.070;2023-09-18T05:52:35;20.80;99.90
4518;DHT22;2271;49.464;11.070;2023-09-18T05:55:02;20.90;99.90
4518;DHT22;2271;49.464;11.070;2023-09-18T05:57:28;21.00;99.90
4518;DHT22;2271;49.464;11.070;2023-09-18T05:59:56;21.20;99.90
4518;DHT22;2271;49.464;11.070;2023-09-18T06:02:23;21.60;99.90
4518;DHT22;2271;49.464;11.070;2023-09-18T06:04:57;21.90;99.90
4518;DHT22;2271;49.464;11.070;2023-09-18T06:07:24;21.90;99.90
4518;DHT22;2271;49.464;11.070;2023-09-18T06:09:50;21.90;99.90
4518;DHT22;2271;49.464;11.070;2023-09-18T06:12:15;21.80;99.90
4518;DHT22;2271;49.464;11.070;2023-09-18T06:14:41;22.00;99.90
4518;DHT22;2271;49.464;11.070;2023-09-18T06:17:07;22.50;99.90
4518;DHT22;2271;49.464;11.070;2023-09-18T06:19:34;22.20;99.90
4518;DHT22;2271;49.464;11.070;2023-09-18T06:22:00;21.80;99.90
4518;DHT22;2271;49.464;11.070;2023-09-18T06:24:26;21.60;99.90
4518;DHT22;2271;49.464;11.070;2023-09-18T06:26:52;21.40;99.90
4518;DHT22;2271;49.464;11.070;2023-09-18T06:29:18;21.30;99.90
4518;DHT22;2271;49.464;11.070;2023-09-18T06:31:44;21.20;99.90
4518;DHT22;2271;49.464;11.070;2023-09-18T06:34:10;21.10;99.90
4518;DHT22;2271;49.464;11.070;2023-09-18T06:36:35;21.20;99.90
4518;DHT22;2271;49.464;11.070;2023-09-18T06:39:01;22.00;99.90
4518;DHT22;2271;49.464;11.070;2023-09-18T06:41:26;23.30;99.90
4518;DHT22;2271;49.464;11.070;2023-09-18T06:43:52;25.40;99.90
4518;DHT22;2271;49.464;11.070;2023-09-18T06:46:18;26.40;99.90
4518;DHT22;2271;49.464;11.070;2023-09-18T06:48:43;25.00;99.90
4518;DHT22;2271;49.464;11.070;2023-09-18T06:51:15;23.80;99.90
4518;DHT22;2271;49.464;11.070;2023-09-18T06:53:40;23.10;99.90
4518;DHT22;2271;49.464;11.070;2023-09-18T06:56:06;22.70;99.90
4518;DHT22;2271;49.464;11.070;2023-09-18T06:58:31;22.50;99.90
4518;DHT22;2271;49.464;11.070;2023-09-18T07:00:57;22.20;99.90
4518;DHT22;2271;49.464;11.070;2023-09-18T07:03:23;23.40;99.90
4518;DHT22;2271;49.464;11.070;2023-09-18T07:05:49;25.10;99.90
4518;DHT22;2271;49.464;11.070;2023-09-18T07:08:14;26.60;99.90
4518;DHT22;2271;49.464;11.070;2023-09-18T07:10:44;28.20;99.90
4518;DHT22;2271;49.464;11.070;2023-09-18T07:13:10;30.40;99.90
4518;DHT22;2271;49.464;11.070;2023-09-18T07:15:37;32.10;99.90
4518;DHT22;2271;49.464;11.070;2023-09-18T07:18:03;33.80;99.90
4518;DHT22;2271;49.464;11.070;2023-09-18T07:20:29;34.20;99.90
4518;DHT22;2271;49.464;11.070;2023-09-18T07:22:55;34.50;99.90
4518;DHT22;2271;49.464;11.070;2023-09-18T07:25:21;34.40;99.90
4518;DHT22;2271;49.464;11.070;2023-09-18T07:27:47;34.60;99.90
4518;DHT22;2271;49.464;11.070;2023-09-18T07:30:14;34.70;99.90
4518;DHT22;2271;49.464;11.070;2023-09-18T07:32:45;34.50;99.90
4518;DHT22;2271;49.464;11.070;2023-09-18T07:35:11;33.70;99.90
4518;DHT22;2271;49.464;11.070;2023-09-18T07:37:39;33.90;99.90
4518;DHT22;2271;49.464;11.070;2023-09-18T07:40:06;33.90;99.90
4518;DHT22;2271;49.464;11.070;2023-09-18T07:42:32;33.70;99.90
4518;DHT22;2271;49.464;11.070;2023-09-18T07:44:58;33.20;99.90
4518;DHT22;2271;49.464;11.070;2023-09-18T07:47:24;33.20;99.90
4518;DHT22;2271;49.464;11.070;2023-09-18T07:49:50;32.50;99.90
4518;DHT22;2271;49.464;11.070;2023-09-18T07:52:17;30.10;99.90
4518;DHT22;2271;49.464;11.070;2023-09-18T07:54:43;28.30;99.90
4518;DHT22;2271;49.464;11.070;2023-09-18T07:57:08;26.60;99.90
4518;DHT22;2271;49.464;11.070;2023-09-18T07:59:35;25.90;99.90
4518;DHT22;2271;49.464;11.070;2023-09-18T08:02:02;25.50;99.90
4518;DHT22;2271;49.464;11.070;2023-09-18T08:04:27;25.70;99.90
4518;DHT22;2271;49.464;11.070;2023-09-18T08:06:53;26.30;99.90
4518;DHT22;2271;49.464;11.070;2023-09-18T08:09:18;26.90;99.90
4518;DHT22;2271;49.464;11.070;2023-09-18T08:11:44;27.30;99.90
4518;DHT22;2271;49.464;11.070;2023-09-18T08:14:10;27.80;99.90
4518;DHT22;2271;49.464;11.070;2023-09-18T08:16:38;28.10;99.90
4518;DHT22;2271;49.464;11.070;2023-09-18T08:19:04;28.20;99.90
4518;DHT22;2271;49.464;11.070;2023-09-18T08:21:30;28.40;99.90
4518;DHT22;2271;49.464;11.070;2023-09-18T08:23:55;28.70;99.90
4518;DHT22;2271;49.464;11.070;2023-09-18T08:26:22;28.90;99.90
4518;DHT22;2271;49.464;11.070;2023-09-18T08:28:47;28.80;99.90
4518;DHT22;2271;49.464;11.070;2023-09-18T08:31:13;28.40;99.90
4518;DHT22;2271;49.464;11.070;2023-09-18T08:33:42;28.00;99.90
4518;DHT22;2271;49.464;11.070;2023-09-18T08:36:08;27.70;99.90
4518;DHT22;2271;49.464;11.070;2023-09-18T08:38:33;27.70;99.90
4518;DHT22;2271;49.464;11.070;2023-09-18T08:40:59;27.70;99.90
4518;DHT22;2271;49.464;11.070;2023-09-18T08:43:25;27.80;99.90
4518;DHT22;2271;49.464;11.070;2023-09-18T08:45:53;28.00;99.90
4518;DHT22;2271;49.464;11.070;2023-09-18T08:48:20;28.30;99.90
4518;DHT22;2271;49.464;11.070;2023-09-18T08:50:47;28.50;99.90
4518;DHT22;2271;49.464;11.070;2023-09-18T08:53:13;28.60;99.90
4518;DHT22;2271;49.464;11.070;2023-09-18T08:55:39;28.70;99.90
4518;DHT22;2271;49.464;11.070;2023-09-18T08:58:07;28.70;99.90
4518;DHT22;2271;49.464;11.070;2023-09-18T09:00:35;28.80;99.90
4518;DHT22;2271;49.464;11.070;2023-09-18T09:03:03;28.80;99.90
4518;DHT22;2271;49.464;11.070;2023-09-18T09:05:30;28.80;99.90
4518;DHT22;2271;49.464;11.070;2023-09-18T09:07:57;28.60;99.90
4518;DHT22;2271;49.464;11.070;2023-09-18T09:10:22;28.20;99.90
4518;DHT22;2271;49.464;11.070;2023-09-18T09:12:54;27.80;99.90
4518;DHT22;2271;49.464;11.070;2023-09-18T09:15:21;27.30;99.90
4518;DHT22;2271;49.464;11.070;2023-09-18T09:17:49;26.90;99.90
4518;DHT22;2271;49.464;11.070;2023-09-18T09:20:15;26.50;99.90
4518;DHT22;2271;49.464;11.070;2023-09-18T09:22:42;26.20;99.90
4518;DHT22;2271;49.464;11.070;2023-09-18T09:27:47;26.10;99.90
4518;DHT22;2271;49.464;11.070;2023-09-18T09:30:19;26.20;99.90
4518;DHT22;2271;49.464;11.070;2023-09-18T09:32:48;26.40;99.90
4518;DHT22;2271;49.464;11.070;2023-09-18T09:35:28;26.70;99.90
4518;DHT22;2271;49.464;11.070;2023-09-18T09:38:02;27.20;99.90
4518;DHT22;2271;49.464;11.070;2023-09-18T09:40:32;27.50;99.90
4518;DHT22;2271;49.464;11.070;2023-09-18T09:42:58;27.70;99.90
4518;DHT22;2271;49.464;11.070;2023-09-18T09:45:28;28.00;99.90
4518;DHT22;2271;49.464;11.070;2023-09-18T09:48:06;28.20;99.90
4518;DHT22;2271;49.464;11.070;2023-09-18T09:50:32;28.30;99.90
4518;DHT22;2271;49.464;11.070;2023-09-18T09:52:59;28.40;99.90
4518;DHT22;2271;49.464;11.070;2023-09-18T09:55:33;28.40;99.90
4518;DHT22;2271;49.464;11.070;2023-09-18T09:58:08;28.30;99.90
4518;DHT22;2271;49.464;11.070;2023-09-18T10:03:09;28.30;99.90
4518;DHT22;2271;49.464;11.070;2023-09-18T10:05:40;28.40;99.90
4518;DHT22;2271;49.464;11.070;2023-09-18T10:08:08;28.50;99.90
4518;DHT22;2271;49.464;11.070;2023-09-18T10:10:43;28.60;99.90
4518;DHT22;2271;49.464;11.070;2023-09-18T10:13:18;28.40;99.90
4518;DHT22;2271;49.464;11.070;2023-09-18T10:15:48;28.00;99.90
4518;DHT22;2271;49.464;11.070;2023-09-18T10:18:26;27.70;99.90
4518;DHT22;2271;49.464;11.070;2023-09-18T10:20:56;27.40;99.90
4518;DHT22;2271;49.464;11.070;2023-09-18T10:26:14;27.00;99.90
4518;DHT22;2271;49.464;11.070;2023-09-18T10:28:43;26.80;99.90
4518;DHT22;2271;49.464;11.070;2023-09-18T10:31:10;26.70;99.90
4518;DHT22;2271;49.464;11.070;2023-09-18T10:33:37;26.50;99.90
4518;DHT22;2271;49.464;11.070;2023-09-18T10:36:04;26.40;99.90
4518;DHT22;2271;49.464;11.070;2023-09-18T10:38:31;26.40;99.90
4518;DHT22;2271;49.464;11.070;2023-09-18T10:40:57;26.30;99.90
4518;DHT22;2271;49.464;11.070;2023-09-18T10:43:24;26.30;99.90
4518;DHT22;2271;49.464;11.070;2023-09-18T10:45:50;26.30;99.90
4518;DHT22;2271;49.464;11.070;2023-09-18T10:48:18;26.20;99.90
4518;DHT22;2271;49.464;11.070;2023-09-18T10:50:44;26.10;99.90
4518;DHT22;2271;49.464;11.070;2023-09-18T10:53:11;26.10;99.90
4518;DHT22;2271;49.464;11.070;2023-09-18T10:55:37;26.00;99.90
4518;DHT22;2271;49.464;11.070;2023-09-18T10:58:04;25.90;99.90
4518;DHT22;2271;49.464;11.070;2023-09-18T11:00:31;25.70;99.90
4518;DHT22;2271;49.464;11.070;2023-09-18T11:03:29;25.70;99.90
4518;DHT22;2271;49.464;11.070;2023-09-18T11:06:06;25.60;99.90
4518;DHT22;2271;49.464;11.070;2023-09-18T11:08:33;25.60;99.90
4518;DHT22;2271;49.464;11.070;2023-09-18T11:11:08;25.50;99.90
4518;DHT22;2271;49.464;11.070;2023-09-18T11:13:51;25.50;99.90
4518;DHT22;2271;49.464;11.070;2023-09-18T11:18:53;25.30;99.90
4518;DHT22;2271;49.464;11.070;2023-09-18T11:21:24;25.20;99.90
4518;DHT22;2271;49.464;11.070;2023-09-18T11:26:23;25.10;99.90
4518;DHT22;2271;49.464;11.070;2023-09-18T11:28:53;25.10;99.90
4518;DHT22;2271;49.464;11.070;2023-09-18T11:31:19;25.00;99.90
4518;DHT22;2271;49.464;11.070;2023-09-18T11:33:47;25.00;99.90
4518;DHT22;2271;49.464;11.070;2023-09-18T11:36:28;24.90;99.90
4518;DHT22;2271;49.464;11.070;2023-09-18T11:38:57;24.80;99.90
4518;DHT22;2271;49.464;11.070;2023-09-18T11:41:26;24.80;99.90
4518;DHT22;2271;49.464;11.070;2023-09-18T11:43:52;24.80;99.90
4518;DHT22;2271;49.464;11.070;2023-09-18T11:46:40;24.90;99.90
4518;DHT22;2271;49.464;11.070;2023-09-18T11:49:07;24.90;99.90
4518;DHT22;2271;49.464;11.070;2023-09-18T11:51:35;24.90;99.90
4518;DHT22;2271;49.464;11.070;2023-09-18T11:54:02;24.80;99.90
4518;DHT22;2271;49.464;11.070;2023-09-18T11:56:29;24.80;99.90
4518;DHT22;2271;49.464;11.070;2023-09-18T11:58:55;24.70;99.90
4518;DHT22;2271;49.464;11.070;2023-09-18T12:01:21;24.60;99.90
4518;DHT22;2271;49.464;11.070;2023-09-18T12:03:54;24.50;99.90
4518;DHT22;2271;49.464;11.070;2023-09-18T12:06:20;24.40;99.90
4518;DHT22;2271;49.464;11.070;2023-09-18T12:08:46;24.40;99.90
4518;DHT22;2271;49.464;11.070;2023-09-18T12:11:13;24.30;99.90
4518;DHT22;2271;49.464;11.070;2023-09-18T12:13:46;24.30;99.90
4518;DHT22;2271;49.464;11.070;2023-09-18T12:16:11;24.20;99.90
4518;DHT22;2271;49.464;11.070;2023-09-18T12:18:37;24.10;99.90
4518;DHT22;2271;49.464;11.070;2023-09-18T12:21:09;24.00;99.90
4518;DHT22;2271;49.464;11.070;2023-09-18T12:23:40;23.90;99.90
4518;DHT22;2271;49.464;11.070;2023-09-18T12:26:06;23.80;99.90
4518;DHT22;2271;49.464;11.070;2023-09-18T12:28:36;23.70;99.90
4518;DHT22;2271;49.464;11.070;2023-09-18T12:31:02;23.60;99.90
4518;DHT22;2271;49.464;11.070;2023-09-18T12:33:39;23.50;99.90
4518;DHT22;2271;49.464;11.070;2023-09-18T12:36:06;23.40;99.90
4518;DHT22;2271;49.464;11.070;2023-09-18T12:38:32;23.30;99.90
4518;DHT22;2271;49.464;11.070;2023-09-18T12:40:59;23.20;99.90
4518;DHT22;2271;49.464;11.070;2023-09-18T12:43:39;23.00;99.90
4518;DHT22;2271;49.464;11.070;2023-09-18T12:46:07;22.80;99.90
4518;DHT22;2271;49.464;11.070;2023-09-18T12:48:37;22.70;99.90
4518;DHT22;2271;49.464;11.070;2023-09-18T12:51:05;22.60;99.90
4518;DHT22;2271;49.464;11.070;2023-09-18T12:53:31;22.50;99.90
4518;DHT22;2271;49.464;11.070;2023-09-18T12:56:12;22.40;99.90
4518;DHT22;2271;49.464;11.070;2023-09-18T12:58:43;22.30;99.90
4518;DHT22;2271;49.464;11.070;2023-09-18T13:01:10;22.20;99.90
4518;DHT22;2271;49.464;11.070;2023-09-18T13:03:46;22.20;99.90
4518;DHT22;2271;49.464;11.070;2023-09-18T13:06:17;22.20;99.90
4518;DHT22;2271;49.464;11.070;2023-09-18T13:08:43;22.10;99.90
4518;DHT22;2271;49.464;11.070;2023-09-18T13:11:09;22.10;99.90
4518;DHT22;2271;49.464;11.070;2023-09-18T13:13:36;22.00;99.90
4518;DHT22;2271;49.464;11.070;2023-09-18T13:16:05;22.00;99.90
4518;DHT22;2271;49.464;11.070;2023-09-18T13:18:31;22.00;99.90
4518;DHT22;2271;49.464;11.070;2023-09-18T13:20:57;22.00;99.90
4518;DHT22;2271;49.464;11.070;2023-09-18T13:23:30;21.90;99.90
4518;DHT22;2271;49.464;11.070;2023-09-18T13:26:00;21.90;99.90
4518;DHT22;2271;49.464;11.070;2023-09-18T13:28:26;21.80;99.90
4518;DHT22;2271;49.464;11.070;2023-09-18T13:30:52;21.80;99.90
4518;DHT22;2271;49.464;11.070;2023-09-18T13:33:17;21.80;99.90
4518;DHT22;2271;49.464;11.070;2023-09-18T13:35:45;21.70;99.90
4518;DHT22;2271;49.464;11.070;2023-09-18T13:38:11;21.60;99.90
4518;DHT22;2271;49.464;11.070;2023-09-18T13:40:38;21.60;99.90
4518;DHT22;2271;49.464;11.070;2023-09-18T13:43:05;21.50;99.90
4518;DHT22;2271;49.464;11.070;2023-09-18T13:45:31;21.50;99.90
4518;DHT22;2271;49.464;11.070;2023-09-18T13:47:57;21.50;99.90
4518;DHT22;2271;49.464;11.070;2023-09-18T13:50:23;21.50;99.90
4518;DHT22;2271;49.464;11.070;2023-09-18T13:52:49;21.50;99.90
4518;DHT22;2271;49.464;11.070;2023-09-18T13:55:14;21.50;99.90
4518;DHT22;2271;49.464;11.070;2023-09-18T13:57:40;21.40;99.90
4518;DHT22;2271;49.464;11.070;2023-09-18T14:00:06;21.40;99.90
4518;DHT22;2271;49.464;11.070;2023-09-18T14:02:34;21.40;99.90
4518;DHT22;2271;49.464;11.070;2023-09-18T14:04:59;21.40;99.90
4518;DHT22;2271;49.464;11.070;2023-09-18T14:07:26;21.30;99.90
4518;DHT22;2271;49.464;11.070;2023-09-18T14:09:52;21.30;99.90
4518;DHT22;2271;49.464;11.070;2023-09-18T14:12:17;21.20;99.90
4518;DHT22;2271;49.464;11.070;2023-09-18T14:14:43;21.20;99.90
4518;DHT22;2271;49.464;11.070;2023-09-18T14:17:10;21.10;99.90
4518;DHT22;2271;49.464;11.070;2023-09-18T14:19:35;21.10;99.90
4518;DHT22;2271;49.464;11.070;2023-09-18T14:22:04;21.00;99.90
4518;DHT22;2271;49.464;11.070;2023-09-18T14:24:31;20.90;99.90
4518;DHT22;2271;49.464;11.070;2023-09-18T14:26:57;20.90;99.90
4518;DHT22;2271;49.464;11.070;2023-09-18T14:29:22;20.80;99.90
4518;DHT22;2271;49.464;11.070;2023-09-18T14:31:48;20.80;99.90
4518;DHT22;2271;49.464;11.070;2023-09-18T14:34:14;20.80;99.90
4518;DHT22;2271;49.464;11.070;2023-09-18T14:36:39;20.90;99.90
4518;DHT22;2271;49.464;11.070;2023-09-18T14:39:06;20.90;99.90
4518;DHT22;2271;49.464;11.070;2023-09-18T14:41:38;20.80;99.90
4518;DHT22;2271;49.464;11.070;2023-09-18T14:44:05;20.60;99.90
4518;DHT22;2271;49.464;11.070;2023-09-18T14:46:31;20.40;99.90
4518;DHT22;2271;49.464;11.070;2023-09-18T14:48:59;20.40;99.90
4518;DHT22;2271;49.464;11.070;2023-09-18T14:51:26;20.40;99.90
4518;DHT22;2271;49.464;11.070;2023-09-18T14:53:54;20.40;99.90
4518;DHT22;2271;49.464;11.070;2023-09-18T14:56:20;20.40;99.90
4518;DHT22;2271;49.464;11.070;2023-09-18T14:58:46;20.40;99.90
4518;DHT22;2271;49.464;11.070;2023-09-18T15:01:12;20.30;99.90
4518;DHT22;2271;49.464;11.070;2023-09-18T15:03:39;20.30;99.90
4518;DHT22;2271;49.464;11.070;2023-09-18T15:06:05;20.30;99.90
4518;DHT22;2271;49.464;11.070;2023-09-18T15:08:33;20.30;99.90
4518;DHT22;2271;49.464;11.070;2023-09-18T15:10:59;20.40;99.90
4518;DHT22;2271;49.464;11.070;2023-09-18T15:13:25;20.40;99.90
4518;DHT22;2271;49.464;11.070;2023-09-18T15:15:51;20.30;99.90
4518;DHT22;2271;49.464;11.070;2023-09-18T15:18:16;20.30;99.90
4518;DHT22;2271;49.464;11.070;2023-09-18T15:20:43;20.20;99.90
4518;DHT22;2271;49.464;11.070;2023-09-18T15:23:08;20.30;99.90
4518;DHT22;2271;49.464;11.070;2023-09-18T15:25:35;20.40;99.90
4518;DHT22;2271;49.464;11.070;2023-09-18T15:28:06;20.40;99.90
4518;DHT22;2271;49.464;11.070;2023-09-18T15:30:32;20.50;99.90
4518;DHT22;2271;49.464;11.070;2023-09-18T15:32:58;20.40;99.90
4518;DHT22;2271;49.464;11.070;2023-09-18T15:35:24;20.40;99.90
4518;DHT22;2271;49.464;11.070;2023-09-18T15:37:50;20.30;99.90
4518;DHT22;2271;49.464;11.070;2023-09-18T15:40:16;20.30;99.90
4518;DHT22;2271;49.464;11.070;2023-09-18T15:42:44;20.40;99.90
4518;DHT22;2271;49.464;11.070;2023-09-18T15:45:11;20.50;99.90
4518;DHT22;2271;49.464;11.070;2023-09-18T15:47:37;20.60;99.90
4518;DHT22;2271;49.464;11.070;2023-09-18T15:50:07;20.50;99.90
4518;DHT22;2271;49.464;11.070;2023-09-18T15:52:33;20.50;99.90
4518;DHT22;2271;49.464;11.070;2023-09-18T15:54:59;20.50;99.90
4518;DHT22;2271;49.464;11.070;2023-09-18T15:57:25;20.50;99.90
4518;DHT22;2271;49.464;11.070;2023-09-18T15:59:52;20.50;99.90
4518;DHT22;2271;49.464;11.070;2023-09-18T16:02:18;20.50;99.90